Saturday, December 15, 2018, 10:33 PM EST
Back to Local

KFWN, Sussex Airport

Location: Sussex, NJ, United States Lat: 41.2
Local Time: 10:33 PM EST ( 3:33 GMT) Lon: -74.633
Time Zone: US/Eastern Elev: 419 ft

Show me the last for .
Show Decoded

2018-12-15 21:53 METAR KFWN 160253Z AUTO 05007KT 10SM CLR 06/03 A3012 RMK AO2 SLP201 T00560028
                 58007 =
2018-12-15 20:53 METAR KFWN 160153Z AUTO 05008G16KT 10SM CLR 06/03 A3014 RMK AO2 SLP208 T00610028
                 =
2018-12-15 19:53 METAR KFWN 160053Z AUTO 04008G16KT 10SM CLR 06/03 A3015 RMK AO2 SLP211 T00610028
                 =
2018-12-15 18:53 METAR KFWN 152353Z AUTO 04008KT 10SM CLR 07/04 A3014 RMK AO2 SLP208 T00720039
                 10089 20067 53016 =
2018-12-15 17:53 METAR KFWN 152253Z AUTO 36005KT 10SM CLR 07/06 A3012 RMK AO2 SLP202 T00720056 =
2018-12-15 16:53 METAR KFWN 152153Z AUTO 04003KT 10SM CLR 08/06 A3008 RMK AO2 PRESRR SLP189
                 T00780061 =
2018-12-15 15:53 METAR KFWN 152053Z AUTO 03005KT 10SM CLR 08/07 A3009 RMK AO2 SLP192 T00780067
                 58010 =
2018-12-15 14:53 METAR KFWN 151953Z AUTO 05004KT 10SM FEW010 08/07 A3011 RMK AO2 SLP198 T00830072
                 =
2018-12-15 13:53 METAR KFWN 151853Z AUTO 04003KT 10SM CLR 08/07 A3012 RMK AO2 SLP203 T00830072 =
2018-12-15 12:53 METAR KFWN 151753Z AUTO 03006KT 10SM FEW050 08/07 A3012 RMK AO2 SLP202 60000
                 T00830072 10083 20044 56019 =
2018-12-15 11:53 METAR KFWN 151653Z AUTO 03007KT 10SM FEW050 08/07 A3014 RMK AO2 SLP208 T00830072
                 =
2018-12-15 11:28 METAR KFWN 151628Z AUTO 03003KT 6SM BR SCT003 08/07 A3013 RMK AO2 T00780072 =
2018-12-15 10:53 METAR KFWN 151553Z AUTO 00000KT 5SM BR BKN003 07/07 A3015 RMK AO2 SLP210
                 T00720072 =
2018-12-15 10:45 METAR KFWN 151545Z AUTO 00000KT 4SM BR BKN003 BKN038 07/07 A3015 RMK AO2
                 T00720072 =
2018-12-15 10:27 METAR KFWN 151527Z AUTO 00000KT 4SM BR FEW002 SCT036 07/07 A3016 RMK AO2
                 T00670067 =
2018-12-15 10:09 METAR KFWN 151509Z AUTO 00000KT 3SM BR BKN030 BKN038 07/07 A3017 RMK AO2
                 T00670067 =
2018-12-15 09:53 METAR KFWN 151453Z AUTO 00000KT 3SM BR OVC028 06/06 A3018 RMK AO2 RAE23 SLP221
                 P0000 60000 T00610061 50004 =
2018-12-15 09:48 METAR KFWN 151448Z AUTO 00000KT 3SM BR OVC026 06/06 A3018 RMK AO2 RAE23 P0000 =
2018-12-15 09:24 METAR KFWN 151424Z AUTO 00000KT 2SM BR FEW005 BKN016 OVC022 06/06 A3019 RMK AO2
                 RAE23 P0000 T00560056 =
2018-12-15 09:17 METAR KFWN 151417Z AUTO 00000KT 2SM -RA BR FEW005 BKN014 OVC031 06/06 A3019 RMK
                 AO2 P0000 T00560056 =
2018-12-15 09:10 METAR KFWN 151410Z AUTO 02003KT 1 3/4SM -RA BR FEW005 BKN018 OVC029 06/06 A3019
                 RMK AO2 P0000 T00560056 =
2018-12-15 09:02 METAR KFWN 151402Z AUTO 04003KT 1 1/2SM -RA BR FEW003 BKN014 OVC043 06/06 A3019
                 RMK AO2 P0000 T00560056 =
2018-12-15 08:53 METAR KFWN 151353Z AUTO 00000KT 1 1/4SM -RA BR BKN013 OVC028 06/06 A3019 RMK AO2
                 RAB45 SLP226 P0000 T00560056 =
2018-12-15 08:49 METAR KFWN 151349Z AUTO 00000KT 1 1/4SM -RA BR BKN013 OVC024 05/05 A3019 RMK AO2
                 RAB45 P0000 =
2018-12-15 08:44 METAR KFWN 151344Z AUTO 00000KT 2SM BR OVC013 05/05 A3019 RMK AO2 T00500050 =
2018-12-15 08:29 METAR KFWN 151329Z AUTO 00000KT 3SM BR OVC011 06/05 A3020 RMK AO2 T00560050 =
2018-12-15 08:00 METAR KFWN 151300Z AUTO 00000KT 2 1/2SM BR OVC011 05/05 A3017 RMK AO2 T00500050
                 =
2018-12-15 07:53 METAR KFWN 151253Z AUTO 00000KT 1 3/4SM BR OVC011 05/05 A3017 RMK AO2 SLP218
                 T00500050 =
2018-12-15 07:46 METAR KFWN 151246Z AUTO 16003KT 1 3/4SM BR OVC012 04/04 A3016 RMK AO2 T00440044
                 =
2018-12-15 07:07 METAR KFWN 151207Z AUTO 00000KT 4SM BR FEW003 OVC013 05/05 A3017 RMK AO2
                 T00500050 =
2018-12-15 06:53 METAR KFWN 151153Z AUTO 04003KT 2 1/2SM BR FEW004 OVC013 04/04 A3018 RMK AO2
                 SLP222 60006 70013 T00440044 10050 20033 55003 =
2018-12-15 06:29 METAR KFWN 151129Z AUTO 13003KT 3SM BR OVC014 04/04 A3018 RMK AO2 T00440039 =
2018-12-15 06:14 METAR KFWN 151114Z AUTO 00000KT 2SM BR OVC013 04/04 A3018 RMK AO2 PRESRR
                 T00390039 =
2018-12-15 06:06 METAR KFWN 151106Z AUTO VRB03KT 1 1/2SM BR FEW002 OVC013 04/04 A3016 RMK AO2
                 T00440039 =
2018-12-15 05:53 METAR KFWN 151053Z AUTO 00000KT 1SM BR FEW003 OVC015 04/04 A3016 RMK AO2 SLP215
                 T00390039 =
2018-12-15 05:46 METAR KFWN 151046Z AUTO 00000KT 1 1/4SM BR FEW003 OVC015 04/04 A3017 RMK AO2
                 T00390039 =
2018-12-15 05:42 METAR KFWN 151042Z AUTO 00000KT 1 3/4SM BR OVC015 04/04 A3016 RMK AO2 T00440044
                 =
2018-12-15 05:33 METAR KFWN 151033Z AUTO 26003KT 1 1/4SM BR OVC014 04/04 A3016 RMK AO2 T00390039
                 =
2018-12-15 05:26 METAR KFWN 151026Z AUTO VRB03KT 1 1/2SM BR FEW004 OVC014 04/04 A3016 RMK AO2
                 T00390039 =
2018-12-15 05:16 METAR KFWN 151016Z AUTO 00000KT 1 3/4SM BR OVC014 04/04 A3017 RMK AO2 T00440044
                 =
2018-12-15 05:09 METAR KFWN 151009Z AUTO 00000KT 3SM BR OVC014 05/04 A3018 RMK AO2 T00500044 =
2018-12-15 05:01 METAR KFWN 151001Z AUTO 36004KT 2 1/2SM BR OVC015 04/04 A3018 RMK AO2 T00440039
                 =
2018-12-15 04:53 METAR KFWN 150953Z AUTO 31003KT 1 3/4SM BR OVC015 04/04 A3018 RMK AO2 SLP221
                 T00440044 =
2018-12-15 04:39 METAR KFWN 150939Z AUTO 00000KT 1 1/2SM BR OVC016 04/04 A3018 RMK AO2 T00390039
                 =
2018-12-15 04:29 METAR KFWN 150929Z AUTO 00000KT 2 1/2SM BR OVC016 04/04 A3018 RMK AO2 T00440044
                 =
2018-12-15 04:22 METAR KFWN 150922Z AUTO 00000KT 1 3/4SM BR OVC016 04/04 A3018 RMK AO2 T00440044
                 =
2018-12-15 04:14 METAR KFWN 150914Z AUTO 00000KT 1 1/4SM BR OVC017 04/04 A3018 RMK AO2 T00390039
                 =
2018-12-15 03:53 METAR KFWN 150853Z AUTO 00000KT 2SM BR OVC018 04/04 A3019 RMK AO2 RAE20 SLP224
                 P0001 60006 T00390039 58010 =
2018-12-15 03:15 METAR KFWN 150815Z AUTO 00000KT 1 1/4SM -RA BR FEW002 OVC018 04/04 A3020 RMK AO2
                 P0001 T00390039 =
2018-12-15 02:53 METAR KFWN 150753Z AUTO 00000KT 2SM -RA BR FEW002 OVC016 04/03 A3020 RMK AO2
                 SLP230 P0001 T00390033 =
2018-12-15 02:28 METAR KFWN 150728Z AUTO 00000KT 2 1/2SM -RA BR BKN016 OVC021 04/04 A3022 RMK AO2
                 P0001 T00390039 =
2018-12-15 02:11 METAR KFWN 150711Z AUTO 00000KT 3SM -RA BR FEW003 OVC023 04/04 A3022 RMK AO2
                 P0001 T00390039 =
2018-12-15 02:05 METAR KFWN 150705Z AUTO 00000KT 2 1/2SM -RA BR OVC023 04/04 A3021 RMK AO2 P0001
                 T00390039 =
2018-12-15 01:54 METAR KFWN 150654Z AUTO 00000KT 1 3/4SM -RA BR FEW004 BKN025 OVC032 04/04 A3021
                 RMK AO2 P0000 T00390039 =
2018-12-15 01:48 METAR KFWN 150648Z AUTO 00000KT 2 1/2SM -RA BR FEW018 BKN026 OVC034 04/04 A3021
                 RMK AO2 SLP233 P0004 T00390039 =
2018-12-15 01:47 METAR KFWN 150647Z AUTO 00000KT 2 1/2SM -RA BR FEW018 BKN026 OVC034 04/04 A3021
                 RMK AO2 P0004 =
2018-12-15 01:41 METAR KFWN 150641Z AUTO 00000KT 3SM -RA BR FEW018 SCT026 OVC034 04/04 A3021 RMK
                 AO2 P0004 T00390039 =
2018-12-15 01:21 METAR KFWN 150621Z AUTO 00000KT 2SM -RA BR FEW005 OVC036 04/04 A3021 RMK AO2
                 P0002 T00390039 =
2018-12-15 01:11 METAR KFWN 150611Z AUTO 00000KT 1 3/4SM -RA BR FEW005 OVC038 03/03 A3022 RMK AO2
                 P0001 T00330033 =
2018-12-15 01:04 METAR KFWN 150604Z AUTO 00000KT 2SM -RA BR FEW005 OVC042 03/03 A3022 RMK AO2
                 P0001 T00330033 =
2018-12-15 00:53 METAR KFWN 150553Z AUTO 00000KT 2 1/2SM -RA BR OVC042 04/04 A3022 RMK AO2 SLP235
                 P0003 60007 T00390039 10039 20017 58019 =
2018-12-15 00:38 METAR KFWN 150538Z AUTO 00000KT 1 3/4SM -RA BR BKN048 OVC055 03/03 A3022 RMK AO2
                 P0003 T00330033 =
2018-12-15 00:13 METAR KFWN 150513Z AUTO 00000KT 2SM -RA BR OVC055 03/03 A3023 RMK AO2 P0001
                 T00330033 =
2018-12-14 23:53 METAR KFWN 150453Z AUTO 00000KT 3SM -RA BR OVC055 03/03 A3023 RMK AO2 SLP241
                 P0002 T00330033 400561011 =
2018-12-14 23:00 METAR KFWN 150400Z AUTO 00000KT 2 1/2SM -RA BR FEW007 FEW014 OVC060 03/03 A3025
                 RMK AO2 P0000 T00280028 =
2018-12-14 22:53 METAR KFWN 150353Z AUTO 21003KT 3SM -RA BR FEW009 BKN055 OVC065 03/03 A3026 RMK
                 AO2 SLP249 P0002 T00280028 =

Support USWX by starting your Amazon purchase here.